Terminal Aerodrome Forecast
Issued by NWS Blacksburg, VA

Current Version | Previous Version | Text Only | Print | Product List | Glossary Off
Versions: 1 2 3 4 5 6 7 8 9 10 11 12 13 14 15 16 17 18 19 20 21 22 23 24 25 26 27 28 29 30 31 32 33 34 35 36 37 38 39 40 41 42 43 44 45 46 47 48 49

000
FTUS41 KRNK 211729
TAFBLF
TAF
KBLF 211729Z 2118/2218 29012G24KT P6SM SCT014 OVC035
      TEMPO 2118/2121 P6SM -SHRA OVC014
     FM220200 30008G16KT P6SM -SHRA SCT007 OVC015=

USA.gov is the U.S. government's official web portal to all federal, state and local government web resources and services.